Time;durP1;ratioP1;P1;durP2;ratioP2;P2;SDS_P1;SDS_P2;PMS_P1;PMS_P2;Temp;Humidity;BMP_temperature;BMP_pressure;BME280_temperature;BME280_humidity;BME280_pressure;Samples;Min_cycle;Max_cycle;Signal;HPM_P1;HPM_P2
2021/12/12 00:00:26;;;;;;;;;24.25;22.50;;;;;-149.00;100.00;66333.84;5102436;27;45434;-75
2021/12/12 00:03:00;;;;;;;;;19.50;19.25;;;;;-149.00;100.00;66333.84;5102334;27;45357;-75
2021/12/12 00:05:38;;;;;;;;;18.00;18.00;;;;;-149.00;100.00;66333.84;5101237;27;45370;-75
2021/12/12 00:08:05;;;;;;;;;21.50;19.75;;;;;-149.00;100.00;66333.84;5102512;27;45612;-75
2021/12/12 00:10:35;;;;;;;;;21.25;19.00;;;;;-149.00;100.00;66333.84;5102448;27;45310;-75
2021/12/12 00:13:09;;;;;;;;;22.50;19.75;;;;;-149.00;100.00;66333.84;5101137;27;46036;-75
2021/12/12 00:15:34;;;;;;;;;17.50;16.00;;;;;-149.00;100.00;66333.84;5102558;27;45571;-75
2021/12/12 00:18:00;;;;;;;;;4.25;4.25;;;;;-149.00;100.00;66333.84;5102126;27;45338;-75
2021/12/12 00:20:28;;;;;;;;;15.25;15.25;;;;;-149.00;100.00;66333.84;5102501;27;45564;-77
2021/12/12 00:22:58;;;;;;;;;21.75;20.25;;;;;-149.00;100.00;66333.84;5102258;27;45176;-76
2021/12/12 00:25:32;;;;;;;;;27.00;21.25;;;;;-149.00;100.00;66333.84;5100894;27;45397;-77
2021/12/12 00:27:58;;;;;;;;;22.25;18.25;;;;;-149.00;100.00;66333.84;5102106;27;45773;-77
2021/12/12 00:30:25;;;;;;;;;20.00;18.00;;;;;-149.00;100.00;66333.84;5102228;27;45406;-75
2021/12/12 00:32:52;;;;;;;;;17.00;16.75;;;;;-149.00;100.00;66333.84;5101821;27;45340;-75
2021/12/12 00:35:19;;;;;;;;;19.75;17.25;;;;;-149.00;100.00;66333.84;5101005;27;45304;-76
2021/12/12 00:37:45;;;;;;;;;16.50;15.00;;;;;-149.00;100.00;66333.84;5100832;27;46048;-76
2021/12/12 00:40:31;;;;;;;;;21.00;16.75;;;;;-149.00;100.00;66333.84;5102097;27;45676;-76
2021/12/12 00:43:01;;;;;;;;;21.50;20.75;;;;;-149.00;100.00;66333.84;5079817;28;45271;-76
2021/12/12 00:45:28;;;;;;;;;21.00;20.00;;;;;-149.00;100.00;66333.84;5081503;27;45256;-76
2021/12/12 00:47:55;;;;;;;;;22.75;19.50;;;;;-149.00;100.00;66333.84;5081046;28;45356;-76
2021/12/12 00:50:32;;;;;;;;;16.25;14.75;;;;;-149.00;100.00;66333.84;5079927;28;47697;-76
2021/12/12 00:53:00;;;;;;;;;19.25;17.25;;;;;-149.00;100.00;66333.84;5079838;28;46214;-76
2021/12/12 00:55:26;;;;;;;;;22.25;20.50;;;;;-149.00;100.00;66333.84;5080167;28;45336;-77
2021/12/12 00:57:53;;;;;;;;;16.75;16.75;;;;;-149.00;100.00;66333.84;5079723;28;47101;-78
2021/12/12 01:00:30;;;;;;;;;22.75;18.25;;;;;-149.00;100.00;66333.84;5079624;28;47994;-78
2021/12/12 01:02:57;;;;;;;;;23.50;19.75;;;;;-149.00;100.00;66333.84;5080978;27;45338;-78
2021/12/12 01:05:24;;;;;;;;;17.00;17.00;;;;;-149.00;100.00;66333.84;5081206;28;45626;-79
2021/12/12 01:07:50;;;;;;;;;19.67;17.00;;;;;-149.00;100.00;66333.84;5081053;27;45318;-79
2021/12/12 01:10:31;;;;;;;;;23.67;19.00;;;;;-149.00;100.00;66333.84;5081000;28;46028;-78
2021/12/12 01:12:58;;;;;;;;;19.00;16.33;;;;;-149.00;100.00;66333.84;5081993;28;45477;-78
2021/12/12 01:15:32;;;;;;;;;14.33;14.33;;;;;-149.00;100.00;66333.84;5080566;28;45382;-77
2021/12/12 01:18:01;;;;;;;;;16.33;16.33;;;;;-149.00;100.00;66333.84;5080129;28;47287;-78
2021/12/12 01:20:50;;;;;;;;;20.00;15.00;;;;;-149.00;100.00;66333.84;5079764;28;46292;-79
2021/12/12 01:23:19;;;;;;;;;15.67;14.67;;;;;-149.00;100.00;66333.84;5096536;27;45382;-79
2021/12/12 01:25:47;;;;;;;;;17.00;15.33;;;;;-149.00;100.00;66333.84;5079672;28;45313;-80
2021/12/12 01:28:17;;;;;;;;;14.00;12.00;;;;;-149.00;100.00;66333.84;5080591;27;45228;-79
2021/12/12 01:30:44;;;;;;;;;13.67;13.00;;;;;-149.00;100.00;66333.84;5096390;27;47109;-79
2021/12/12 01:33:12;;;;;;;;;0.00;0.00;;;;;-149.00;100.00;66333.84;5079317;28;45392;-77
2021/12/12 01:35:39;;;;;;;;;9.33;9.33;;;;;-149.00;100.00;66333.84;5079481;28;45307;-79
2021/12/12 01:40:53;;;;;;;;;12.67;11.00;;;;;-149.00;100.00;66333.84;5089269;27;45285;-79
2021/12/12 01:43:25;;;;;;;;;10.00;10.00;;;;;-149.00;100.00;66333.84;5121529;27;45366;-79
2021/12/12 01:45:58;;;;;;;;;12.67;12.00;;;;;-149.00;100.00;66333.84;5121944;27;45222;-79
2021/12/12 01:48:35;;;;;;;;;13.00;10.67;;;;;-149.00;100.00;66333.84;5119985;27;47040;-79
2021/12/12 01:51:06;;;;;;;;;8.00;8.00;;;;;-149.00;100.00;66333.84;5122144;27;45385;-79
2021/12/12 01:53:36;;;;;;;;;9.00;9.00;;;;;-149.00;100.00;66333.84;5120360;27;46021;-79
2021/12/12 01:56:11;;;;;;;;;11.33;11.33;;;;;-149.00;100.00;66333.84;5122066;27;45218;-80
2021/12/12 01:58:38;;;;;;;;;13.33;10.00;;;;;-149.00;100.00;66333.84;5121436;27;45390;-80
2021/12/12 02:01:21;;;;;;;;;10.33;9.33;;;;;-149.00;100.00;66333.84;5119835;27;47971;-79
2021/12/12 02:04:02;;;;;;;;;7.33;7.33;;;;;-149.00;100.00;66333.84;5121620;27;45222;-80
2021/12/12 02:06:29;;;;;;;;;9.33;8.67;;;;;-149.00;100.00;66333.84;5119595;27;45196;-80
2021/12/12 02:08:56;;;;;;;;;11.00;10.00;;;;;-149.00;100.00;66333.84;5119935;27;45871;-80
2021/12/12 02:11:26;;;;;;;;;8.00;8.00;;;;;-149.00;100.00;66333.84;5119888;27;47194;-80
2021/12/12 02:13:54;;;;;;;;;8.00;8.00;;;;;-149.00;100.00;66333.84;5121338;27;45327;-80
2021/12/12 02:16:22;;;;;;;;;7.00;7.00;;;;;-149.00;100.00;66333.84;5120045;27;45256;-80
2021/12/12 02:18:52;;;;;;;;;9.33;8.00;;;;;-149.00;100.00;66333.84;5119491;27;45937;-80
2021/12/12 02:22:15;;;;;;;;;6.00;6.00;;;;;-149.00;100.00;66333.84;5121254;27;45644;-81
2021/12/12 02:35:45;;;;;;;;;7.00;6.00;;;;;-149.00;100.00;66333.84;5121046;27;45388;-82
2021/12/12 02:38:18;;;;;;;;;5.67;4.67;;;;;-149.00;100.00;66333.84;5122814;27;45312;-81
2021/12/12 02:40:51;;;;;;;;;5.00;5.00;;;;;-149.00;100.00;66333.84;5116411;27;45914;-82
2021/12/12 02:43:20;;;;;;;;;5.00;5.00;;;;;-149.00;100.00;66333.84;5098717;27;47115;-81
2021/12/12 02:45:46;;;;;;;;;4.00;4.00;;;;;-149.00;100.00;66333.84;5098949;27;45853;-81
2021/12/12 02:48:18;;;;;;;;;5.33;5.33;;;;;-149.00;100.00;66333.84;5098593;27;45319;-82
2021/12/12 02:50:48;;;;;;;;;2.67;2.67;;;;;-149.00;100.00;66333.84;5098705;27;46909;-81
2021/12/12 02:53:26;;;;;;;;;3.67;3.67;;;;;-149.00;100.00;66333.84;5100152;27;46721;-81
2021/12/12 02:56:01;;;;;;;;;4.33;3.67;;;;;-149.00;100.00;66333.84;5100148;27;45522;-81
2021/12/12 02:58:27;;;;;;;;;4.67;3.00;;;;;-149.00;100.00;66333.84;5100252;27;45313;-80
2021/12/12 03:00:59;;;;;;;;;4.67;4.67;;;;;-149.00;100.00;66333.84;5099870;27;45238;-80
2021/12/12 03:03:30;;;;;;;;;4.33;4.33;;;;;-149.00;100.00;66333.84;5132884;27;47383;-80
2021/12/12 03:05:56;;;;;;;;;4.00;4.00;;;;;-149.00;100.00;66333.84;5098702;27;45956;-80
2021/12/12 03:08:22;;;;;;;;;3.33;3.33;;;;;-149.00;100.00;66333.84;5100017;27;45218;-80
2021/12/12 03:10:52;;;;;;;;;5.33;5.00;;;;;-149.00;100.00;66333.84;5098733;27;46292;-80
2021/12/12 03:13:18;;;;;;;;;5.00;4.00;;;;;-149.00;100.00;66333.84;5098524;27;48488;-80
2021/12/12 03:15:46;;;;;;;;;4.33;4.00;;;;;-149.00;100.00;66333.84;5098552;27;45249;-81
2021/12/12 03:18:16;;;;;;;;;4.00;4.00;;;;;-149.00;100.00;66333.84;5100622;27;45370;-81
2021/12/12 03:20:47;;;;;;;;;3.00;3.00;;;;;-149.00;100.00;66333.84;5101911;27;47388;-81
2021/12/12 03:23:19;;;;;;;;;3.00;3.00;;;;;-149.00;100.00;66333.84;5101807;27;48104;-81
2021/12/12 03:25:48;;;;;;;;;4.00;3.00;;;;;-149.00;100.00;66333.84;5103174;27;45387;-81
2021/12/12 03:28:17;;;;;;;;;4.33;3.33;;;;;-149.00;100.00;66333.84;5102020;27;45308;-80
2021/12/12 03:30:44;;;;;;;;;3.00;3.00;;;;;-149.00;100.00;66333.84;5101968;27;46203;-80
2021/12/12 03:33:10;;;;;;;;;3.33;3.33;;;;;-149.00;100.00;66333.84;5084502;27;47080;-80
2021/12/12 03:35:36;;;;;;;;;3.00;3.00;;;;;-149.00;100.00;66333.84;5101885;27;45631;-81
2021/12/12 03:38:03;;;;;;;;;4.67;4.67;;;;;-149.00;100.00;66333.84;5103364;27;45441;-81
2021/12/12 03:40:33;;;;;;;;;4.67;4.67;;;;;-149.00;100.00;66333.84;5102992;27;45508;-81
2021/12/12 03:43:00;;;;;;;;;3.00;3.00;;;;;-149.00;100.00;66333.84;5101357;27;45967;-80
2021/12/12 03:45:27;;;;;;;;;4.00;3.33;;;;;-149.00;100.00;66333.84;5102970;27;45192;-81
2021/12/12 03:47:58;;;;;;;;;4.00;4.00;;;;;-149.00;100.00;66333.84;5101437;27;45468;-81
2021/12/12 03:50:33;;;;;;;;;5.00;5.00;;;;;-149.00;100.00;66333.84;5101518;27;47407;-80
2021/12/12 03:53:00;;;;;;;;;3.33;3.33;;;;;-149.00;100.00;66333.84;5102964;27;46603;-80
2021/12/12 03:55:27;;;;;;;;;5.00;4.00;;;;;-149.00;100.00;66333.84;5102890;27;45257;-79
2021/12/12 03:57:54;;;;;;;;;4.67;4.67;;;;;-149.00;100.00;66333.84;5102855;27;45341;-79
2021/12/12 04:00:30;;;;;;;;;7.00;6.00;;;;;-149.00;100.00;66333.84;5101346;27;45954;-79
2021/12/12 04:02:57;;;;;;;;;6.00;4.00;;;;;-149.00;100.00;66333.84;5102563;27;46154;-78
2021/12/12 04:05:23;;;;;;;;;3.00;3.00;;;;;-149.00;100.00;66333.84;5101281;27;45809;-79
2021/12/12 04:07:49;;;;;;;;;4.33;3.67;;;;;-149.00;100.00;66333.84;5102802;27;45334;-79
2021/12/12 04:10:19;;;;;;;;;4.67;4.67;;;;;-149.00;100.00;66333.84;5102783;27;45266;-80
2021/12/12 04:12:47;;;;;;;;;4.67;4.67;;;;;-149.00;100.00;66333.84;5102559;27;45329;-79
2021/12/12 04:15:12;;;;;;;;;3.33;3.00;;;;;-149.00;100.00;66333.84;5101144;27;45276;-79
2021/12/12 04:17:38;;;;;;;;;4.00;4.00;;;;;-149.00;100.00;66333.84;5101051;27;45302;-80
2021/12/12 04:20:30;;;;;;;;;5.67;4.33;;;;;-149.00;100.00;66333.84;5101073;27;46109;-80
2021/12/12 04:22:56;;;;;;;;;6.67;5.67;;;;;-149.00;100.00;66333.84;5102577;27;45446;-80
2021/12/12 04:25:22;;;;;;;;;5.00;5.00;;;;;-149.00;100.00;66333.84;5102340;27;45252;-80
2021/12/12 04:27:49;;;;;;;;;5.67;5.67;;;;;-149.00;100.00;66333.84;5100740;27;45413;-80
2021/12/12 04:30:16;;;;;;;;;5.00;5.00;;;;;-149.00;100.00;66333.84;5102309;27;45562;-79
2021/12/12 04:32:44;;;;;;;;;7.00;6.00;;;;;-149.00;100.00;66333.84;5101880;27;45469;-78
2021/12/12 04:35:16;;;;;;;;;5.33;4.00;;;;;-149.00;100.00;66333.84;5101011;27;45260;-79
2021/12/12 04:37:44;;;;;;;;;5.00;5.00;;;;;-149.00;100.00;66333.84;5101047;27;45252;-79
2021/12/12 04:40:14;;;;;;;;;4.00;4.00;;;;;-149.00;100.00;66333.84;5102231;27;45297;-78
2021/12/12 04:42:40;;;;;;;;;6.00;6.00;;;;;-149.00;100.00;66333.84;5100280;27;47584;-78
2021/12/12 04:45:30;;;;;;;;;6.33;6.33;;;;;-149.00;100.00;66333.84;5100763;27;45668;-79
2021/12/12 04:51:10;;;;;;;;;6.67;6.67;;;;;-149.00;100.00;66333.84;5101773;27;45361;-80
2021/12/12 04:53:44;;;;;;;;;6.67;6.67;;;;;-149.00;100.00;66333.84;5100263;27;47067;-80
2021/12/12 04:56:35;;;;;;;;;7.00;7.00;;;;;-149.00;100.00;66333.84;5100462;27;46109;-80
2021/12/12 04:59:12;;;;;;;;;6.67;6.67;;;;;-149.00;100.00;66333.84;5101948;27;45289;-80
2021/12/12 05:01:44;;;;;;;;;7.67;7.67;;;;;-149.00;100.00;66333.84;5101489;27;45331;-80
2021/12/12 05:04:25;;;;;;;;;7.67;7.67;;;;;-149.00;100.00;66333.84;5099927;27;48651;-79
2021/12/12 05:06:58;;;;;;;;;6.33;6.33;;;;;-149.00;100.00;66333.84;5101705;27;45469;-78
2021/12/12 05:09:31;;;;;;;;;8.00;7.00;;;;;-149.00;100.00;66333.84;5101864;27;45336;-79
2021/12/12 05:12:16;;;;;;;;;7.67;7.00;;;;;-149.00;100.00;66333.84;5100321;27;47104;-80
2021/12/12 05:14:50;;;;;;;;;9.00;9.00;;;;;-149.00;100.00;66333.84;5101500;27;45467;-80
2021/12/12 05:17:55;;;;;;;;;8.00;8.00;;;;;-149.00;100.00;66333.84;5101238;27;45350;-80
2021/12/12 05:20:28;;;;;;;;;8.00;7.67;;;;;-149.00;100.00;66333.84;5100205;27;45263;-80
2021/12/12 05:22:55;;;;;;;;;9.00;8.33;;;;;-149.00;100.00;66333.84;5101328;27;45153;-79
2021/12/12 05:25:25;;;;;;;;;10.67;9.67;;;;;-149.00;100.00;66333.84;5099864;27;47325;-79
2021/12/12 05:27:54;;;;;;;;;13.00;9.00;;;;;-149.00;100.00;66333.84;5101245;27;45291;-78
2021/12/12 05:30:24;;;;;;;;;8.00;7.00;;;;;-149.00;100.00;66333.84;5101402;27;45286;-79
2021/12/12 05:32:51;;;;;;;;;11.67;10.00;;;;;-149.00;100.00;66333.84;5099430;27;47319;-80
2021/12/12 05:35:22;;;;;;;;;10.67;8.33;;;;;-149.00;100.00;66333.84;5099809;27;48087;-80
2021/12/12 05:37:50;;;;;;;;;12.67;10.33;;;;;-149.00;100.00;66333.84;5099691;27;46447;-80
2021/12/12 05:40:19;;;;;;;;;10.00;8.67;;;;;-149.00;100.00;66333.84;5099004;27;45337;-80
2021/12/12 05:42:47;;;;;;;;;10.00;8.33;;;;;-149.00;100.00;66333.84;5119952;27;45521;-80
2021/12/12 05:45:14;;;;;;;;;9.00;9.00;;;;;-149.00;100.00;66333.84;5120284;27;48379;-79
2021/12/12 05:47:40;;;;;;;;;9.33;8.00;;;;;-149.00;100.00;66333.84;5121386;27;45350;-79
2021/12/12 05:50:08;;;;;;;;;11.33;8.00;;;;;-149.00;100.00;66333.84;5120477;27;45447;-79
2021/12/12 05:52:34;;;;;;;;;13.00;11.67;;;;;-149.00;100.00;66333.84;5120273;27;47547;-78
2021/12/12 05:55:04;;;;;;;;;10.67;10.67;;;;;-149.00;100.00;66333.84;5121550;27;45229;-79
2021/12/12 05:57:30;;;;;;;;;13.00;11.00;;;;;-149.00;100.00;66333.84;5120094;27;46450;-80
2021/12/12 05:59:57;;;;;;;;;14.00;12.00;;;;;-149.00;100.00;66333.84;5120221;27;45423;-80
2021/12/12 06:02:24;;;;;;;;;10.33;10.00;;;;;-149.00;100.00;66333.84;5119535;27;47443;-80
2021/12/12 06:04:50;;;;;;;;;10.67;10.67;;;;;-149.00;100.00;66333.84;5119943;27;47184;-80
2021/12/12 06:07:19;;;;;;;;;13.00;10.33;;;;;-149.00;100.00;66333.84;5119848;27;46086;-78
2021/12/12 06:09:49;;;;;;;;;13.33;12.67;;;;;-149.00;100.00;66333.84;5121470;27;45481;-78
2021/12/12 06:12:16;;;;;;;;;14.00;12.33;;;;;-149.00;100.00;66333.84;5121331;27;45432;-75
2021/12/12 06:14:43;;;;;;;;;12.67;11.00;;;;;-149.00;100.00;66333.84;5121392;27;46541;-77
2021/12/12 06:17:13;;;;;;;;;14.67;13.67;;;;;-149.00;100.00;66333.84;5120957;27;45364;-77
2021/12/12 06:19:40;;;;;;;;;12.00;11.33;;;;;-149.00;100.00;66333.84;5119992;27;45278;-77
2021/12/12 06:22:06;;;;;;;;;14.67;14.67;;;;;-149.00;100.00;66333.84;5119843;27;47289;-76
2021/12/12 06:24:33;;;;;;;;;14.67;14.00;;;;;-149.00;100.00;66333.84;5119543;27;48158;-76
2021/12/12 06:27:15;;;;;;;;;12.67;12.67;;;;;-149.00;100.00;66333.84;5119671;27;46064;-77
2021/12/12 06:29:41;;;;;;;;;13.67;13.67;;;;;-149.00;100.00;66333.84;5119802;27;45304;-77
2021/12/12 06:32:07;;;;;;;;;15.67;15.67;;;;;-149.00;100.00;66333.84;5120861;27;45389;-77
2021/12/12 06:34:34;;;;;;;;;14.00;14.00;;;;;-149.00;100.00;66333.84;5120921;27;45347;-76
2021/12/12 06:36:59;;;;;;;;;16.00;16.00;;;;;-149.00;100.00;66333.84;5119475;27;45792;-77
2021/12/12 06:39:25;;;;;;;;;19.00;17.67;;;;;-149.00;100.00;66333.84;5119683;27;45462;-77
2021/12/12 06:41:52;;;;;;;;;17.33;17.00;;;;;-149.00;100.00;66333.84;5107783;27;45447;-78
2021/12/12 06:44:18;;;;;;;;;10.00;10.00;;;;;-149.00;100.00;66333.84;5099877;27;45321;-78
2021/12/12 06:46:44;;;;;;;;;18.00;16.00;;;;;-149.00;100.00;66333.84;5133007;27;45267;-78
2021/12/12 06:49:13;;;;;;;;;13.67;13.67;;;;;-149.00;100.00;66333.84;5100034;27;45408;-76
2021/12/12 06:51:46;;;;;;;;;18.67;16.33;;;;;-149.00;100.00;66333.84;5101860;27;45316;-76
2021/12/12 06:54:16;;;;;;;;;21.67;19.67;;;;;-149.00;100.00;66333.84;5102322;27;46989;-76
2021/12/12 06:56:42;;;;;;;;;23.67;19.67;;;;;-149.00;100.00;66333.84;5103892;27;45265;-76
2021/12/12 06:59:08;;;;;;;;;22.67;20.67;;;;;-149.00;100.00;66333.84;5104123;27;45375;-76
2021/12/12 07:01:34;;;;;;;;;24.00;21.00;;;;;-149.00;100.00;66333.84;5136864;27;45800;-78
2021/12/12 07:04:02;;;;;;;;;21.00;19.00;;;;;-149.00;100.00;66333.84;5103470;27;45347;-79
2021/12/12 07:06:29;;;;;;;;;17.00;15.00;;;;;-149.00;100.00;66333.84;5104000;27;45231;-81
2021/12/12 07:08:59;;;;;;;;;18.33;17.33;;;;;-149.00;100.00;66333.84;5103940;27;45386;-80
2021/12/12 07:11:27;;;;;;;;;22.33;21.00;;;;;-149.00;100.00;66333.84;5103031;27;47162;-76
2021/12/12 07:13:53;;;;;;;;;21.00;17.33;;;;;-149.00;100.00;66333.84;5103356;27;46127;-81
2021/12/12 07:16:21;;;;;;;;;23.33;23.33;;;;;-149.00;100.00;66333.84;5102026;27;45390;-78
2021/12/12 07:18:47;;;;;;;;;24.33;23.00;;;;;-149.00;100.00;66333.84;5101782;27;45337;-76
2021/12/12 07:21:15;;;;;;;;;26.33;22.67;;;;;-149.00;100.00;66333.84;5101949;27;46728;-76
2021/12/12 07:23:42;;;;;;;;;24.33;20.00;;;;;-149.00;100.00;66333.84;5103360;27;45445;-78
2021/12/12 07:26:10;;;;;;;;;20.33;20.00;;;;;-149.00;100.00;66333.84;5103303;27;45361;-75
2021/12/12 07:28:37;;;;;;;;;21.33;20.00;;;;;-149.00;100.00;66333.84;5103252;27;45396;-78
2021/12/12 07:31:10;;;;;;;;;20.00;19.00;;;;;-149.00;100.00;66333.84;5101745;27;45962;-78
2021/12/12 07:33:36;;;;;;;;;24.00;20.67;;;;;-149.00;100.00;66333.84;5102860;27;45430;-74
2021/12/12 07:36:05;;;;;;;;;24.33;23.33;;;;;-149.00;100.00;66333.84;5101885;27;45470;-77
2021/12/12 07:38:34;;;;;;;;;24.67;21.33;;;;;-149.00;100.00;66333.84;5103230;27;45270;-81
2021/12/12 07:41:01;;;;;;;;;26.33;24.33;;;;;-149.00;100.00;66333.84;5101561;27;45441;-82
2021/12/12 07:43:31;;;;;;;;;19.67;19.33;;;;;-149.00;100.00;66333.84;5101441;27;47162;-81
2021/12/12 07:45:57;;;;;;;;;21.00;18.67;;;;;-149.00;100.00;66333.84;5103147;27;45289;-81
2021/12/12 07:48:23;;;;;;;;;22.00;20.00;;;;;-149.00;100.00;66333.84;5101321;27;45492;-81
2021/12/12 07:50:51;;;;;;;;;23.67;23.67;;;;;-149.00;100.00;66333.84;5101520;27;46249;-78
2021/12/12 07:53:18;;;;;;;;;21.33;20.67;;;;;-149.00;100.00;66333.84;5101814;27;47357;-79
2021/12/12 07:55:44;;;;;;;;;25.67;22.00;;;;;-149.00;100.00;66333.84;5102865;27;45286;-79
2021/12/12 07:58:13;;;;;;;;;19.00;19.00;;;;;-149.00;100.00;66333.84;5103030;27;45223;-79
2021/12/12 08:00:41;;;;;;;;;20.33;20.00;;;;;-149.00;100.00;66333.84;5102211;27;45936;-79
2021/12/12 08:03:11;;;;;;;;;21.00;19.33;;;;;-149.00;100.00;66333.84;5079788;28;47049;-79
2021/12/12 08:05:37;;;;;;;;;21.00;18.33;;;;;-149.00;100.00;66333.84;5080950;28;46215;-80
2021/12/12 08:08:10;;;;;;;;;21.33;18.67;;;;;-149.00;100.00;66333.84;5080812;28;45600;-79
2021/12/12 08:10:40;;;;;;;;;26.00;23.33;;;;;-149.00;100.00;66333.84;5080533;28;46259;-81
2021/12/12 08:13:09;;;;;;;;;21.33;19.00;;;;;-149.00;100.00;66333.84;5080578;28;46884;-81
2021/12/12 08:15:38;;;;;;;;;18.33;15.00;;;;;-149.00;100.00;66333.84;5080654;28;45845;-81
2021/12/12 08:18:08;;;;;;;;;25.00;23.33;;;;;-149.00;100.00;66333.84;5080382;28;45449;-82
2021/12/12 08:20:37;;;;;;;;;19.00;19.00;;;;;-149.00;100.00;66333.84;5080440;28;46371;-81
2021/12/12 08:23:16;;;;;;;;;19.67;19.67;;;;;-149.00;100.00;66333.84;5078543;28;45475;-79
2021/12/12 08:25:50;;;;;;;;;28.00;25.00;;;;;-149.00;100.00;66333.84;5078296;27;45815;-79
2021/12/12 08:28:18;;;;;;;;;25.33;23.67;;;;;-149.00;100.00;66333.84;5081061;28;45291;-81
2021/12/12 08:30:53;;;;;;;;;23.67;23.33;;;;;-149.00;100.00;66333.84;5080713;28;45234;-80
2021/12/12 08:33:28;;;;;;;;;24.00;21.33;;;;;-149.00;100.00;66333.84;5079957;28;47182;-82
2021/12/12 08:35:58;;;;;;;;;30.00;25.33;;;;;-149.00;100.00;66333.84;5082006;27;45263;-76
2021/12/12 08:38:23;;;;;;;;;29.33;25.33;;;;;-149.00;100.00;66333.84;5082475;27;45365;-77
2021/12/12 08:40:53;;;;;;;;;19.67;19.00;;;;;-149.00;100.00;66333.84;5084512;27;45497;-76
2021/12/12 08:43:22;;;;;;;;;24.00;20.33;;;;;-149.00;100.00;66333.84;5101089;27;45434;-77
2021/12/12 08:45:59;;;;;;;;;20.33;19.33;;;;;-149.00;100.00;66333.84;5101534;27;45232;-77
2021/12/12 08:48:31;;;;;;;;;28.33;26.33;;;;;-149.00;100.00;66333.84;5101502;27;45304;-77
2021/12/12 08:50:59;;;;;;;;;29.33;28.00;;;;;-149.00;100.00;66333.84;5101476;27;45389;-76
2021/12/12 08:53:26;;;;;;;;;25.00;24.33;;;;;-149.00;100.00;66333.84;5101518;27;47022;-77
2021/12/12 08:55:54;;;;;;;;;23.67;19.33;;;;;-149.00;100.00;66333.84;5101666;27;45732;-76
2021/12/12 08:58:23;;;;;;;;;24.67;24.33;;;;;-149.00;100.00;66333.84;5101637;27;45279;-77
2021/12/12 09:00:58;;;;;;;;;18.33;18.33;;;;;-149.00;100.00;66333.84;5102131;27;48018;-77
2021/12/12 09:03:36;;;;;;;;;23.33;20.33;;;;;-149.00;100.00;66333.84;5102715;27;45493;-76
2021/12/12 09:06:03;;;;;;;;;18.67;17.33;;;;;-149.00;100.00;66333.84;5101711;27;46277;-77
2021/12/12 09:08:41;;;;;;;;;18.00;16.00;;;;;-149.00;100.00;66333.84;5101761;27;45316;-77
2021/12/12 09:11:51;;;;;;;;;20.00;19.67;;;;;-149.00;100.00;66333.84;5101870;27;46362;-77
2021/12/12 09:14:34;;;;;;;;;18.33;15.00;;;;;-149.00;100.00;66333.84;5101324;27;47504;-77
2021/12/12 09:17:12;;;;;;;;;20.00;20.00;;;;;-149.00;100.00;66333.84;5135913;27;45358;-77
2021/12/12 09:19:44;;;;;;;;;24.00;21.00;;;;;-149.00;100.00;66333.84;5101657;27;45310;-77
2021/12/12 09:22:29;;;;;;;;;18.33;18.00;;;;;-149.00;100.00;66333.84;5101810;27;46085;-77
2021/12/12 09:25:16;;;;;;;;;22.33;21.33;;;;;-149.00;100.00;66333.84;5103064;27;45600;-77
2021/12/12 09:27:48;;;;;;;;;18.33;16.67;;;;;-149.00;100.00;66333.84;5102824;27;45384;-77
2021/12/12 09:30:20;;;;;;;;;19.67;17.33;;;;;-149.00;100.00;66333.84;5101286;27;45285;-77
2021/12/12 09:33:33;;;;;;;;;19.67;17.67;;;;;-149.00;100.00;66333.84;5102447;27;45295;-77
2021/12/12 09:36:06;;;;;;;;;17.67;16.67;;;;;-149.00;100.00;66333.84;5096769;27;45446;-77
2021/12/12 09:38:42;;;;;;;;;18.33;18.33;;;;;-149.00;100.00;66333.84;5105337;27;45317;-78
2021/12/12 09:41:45;;;;;;;;;20.33;19.33;;;;;-149.00;100.00;66333.84;5114379;27;45626;-78
2021/12/12 09:44:43;;;;;;;;;18.67;13.67;;;;;-149.00;100.00;66333.84;5126169;27;45297;-78
2021/12/12 09:47:30;;;;;;;;;22.33;21.00;;;;;-149.00;100.00;66333.84;5123599;27;47026;-78
2021/12/12 09:53:32;;;;;;;;;18.00;17.67;;;;;-149.00;100.00;66333.84;5125551;27;45346;-78
2021/12/12 09:56:17;;;;;;;;;23.00;22.33;;;;;-149.00;100.00;66333.84;5124040;27;47430;-78
2021/12/12 09:59:13;;;;;;;;;20.67;19.33;;;;;-149.00;100.00;66333.84;5122433;27;46714;-78
2021/12/12 10:01:52;;;;;;;;;22.00;20.00;;;;;-149.00;100.00;66333.84;5121244;27;45378;-78
2021/12/12 10:04:33;;;;;;;;;15.33;15.33;;;;;-149.00;100.00;66333.84;5120223;27;45165;-78
2021/12/12 10:06:59;;;;;;;;;21.00;16.67;;;;;-149.00;100.00;66333.84;5119884;27;45747;-78
2021/12/12 10:09:57;;;;;;;;;17.33;15.33;;;;;-149.00;100.00;66333.84;5121883;27;45315;-78
2021/12/12 10:12:28;;;;;;;;;17.33;16.33;;;;;-149.00;100.00;66333.84;5119439;27;45543;-79
2021/12/12 10:15:19;;;;;;;;;22.33;22.00;;;;;-149.00;100.00;66333.84;5121427;27;45340;-81
2021/12/12 10:17:44;;;;;;;;;18.67;16.33;;;;;-149.00;100.00;66333.84;5120908;27;45200;-80
2021/12/12 10:20:18;;;;;;;;;17.67;17.67;;;;;-149.00;100.00;66333.84;5119620;27;47082;-80
2021/12/12 10:22:53;;;;;;;;;20.00;16.00;;;;;-149.00;100.00;66333.84;5122104;27;45274;-79
2021/12/12 10:25:24;;;;;;;;;21.33;17.33;;;;;-149.00;100.00;66333.84;5126043;27;45259;-80
2021/12/12 10:27:58;;;;;;;;;16.00;16.00;;;;;-149.00;100.00;66333.84;5124285;27;45318;-80
2021/12/12 10:30:32;;;;;;;;;17.33;17.00;;;;;-149.00;100.00;66333.84;5123343;27;47174;-80
2021/12/12 10:33:12;;;;;;;;;18.00;16.00;;;;;-149.00;100.00;66333.84;5125191;27;45294;-80
2021/12/12 10:36:10;;;;;;;;;16.33;15.00;;;;;-149.00;100.00;66333.84;5125056;27;45292;-81
2021/12/12 10:38:45;;;;;;;;;15.33;12.67;;;;;-149.00;100.00;66333.84;5123615;27;46058;-81
2021/12/12 10:41:13;;;;;;;;;15.00;14.33;;;;;-149.00;100.00;66333.84;5115754;27;48428;-80
2021/12/12 10:43:43;;;;;;;;;17.00;15.67;;;;;-149.00;100.00;66333.84;5104094;27;45358;-81
2021/12/12 10:46:15;;;;;;;;;18.00;18.00;;;;;-149.00;100.00;66333.84;5101160;27;45304;-78
2021/12/12 10:48:57;;;;;;;;;13.33;13.33;;;;;-149.00;100.00;66333.84;5099476;27;45523;-77
2021/12/12 10:51:24;;;;;;;;;17.00;15.00;;;;;-149.00;100.00;66333.84;5099932;27;45521;-77
2021/12/12 10:54:04;;;;;;;;;15.00;12.33;;;;;-149.00;100.00;66333.84;5100016;27;45287;-77
2021/12/12 10:56:33;;;;;;;;;13.00;11.67;;;;;-149.00;100.00;66333.84;5098689;27;45493;-77
2021/12/12 10:59:03;;;;;;;;;12.67;12.00;;;;;-149.00;100.00;66333.84;5098621;27;47160;-76
2021/12/12 11:01:39;;;;;;;;;14.67;13.67;;;;;-149.00;100.00;66333.84;5099754;27;47336;-76
2021/12/12 11:04:13;;;;;;;;;12.00;12.00;;;;;-149.00;100.00;66333.84;5099844;27;45289;-76
2021/12/12 11:06:46;;;;;;;;;16.33;15.67;;;;;-149.00;100.00;66333.84;5100013;27;45415;-76
2021/12/12 11:09:27;;;;;;;;;19.33;16.67;;;;;-149.00;100.00;66333.84;5098227;27;46154;-75
2021/12/12 11:12:06;;;;;;;;;18.67;17.00;;;;;-149.00;100.00;66333.84;5098419;27;47280;-75
2021/12/12 11:14:41;;;;;;;;;13.00;11.67;;;;;-149.00;100.00;66333.84;5099789;27;45333;-76
2021/12/12 11:17:12;;;;;;;;;11.67;11.33;;;;;-149.00;100.00;66333.84;5099741;27;45295;-76
2021/12/12 11:20:15;;;;;;;;;14.00;14.00;;;;;-149.00;100.00;66333.84;5099741;27;45382;-76
2021/12/12 11:22:55;;;;;;;;;17.00;17.00;;;;;-149.00;100.00;66333.84;5099642;27;46743;-77
2021/12/12 11:25:50;;;;;;;;;21.00;19.33;;;;;-149.00;100.00;66333.84;5099708;27;45366;-77
2021/12/12 11:28:21;;;;;;;;;22.67;20.33;;;;;-149.00;100.00;66333.84;5099784;27;45231;-75
2021/12/12 11:30:51;;;;;;;;;15.00;15.00;;;;;-149.00;100.00;66333.84;5098269;27;45928;-76
2021/12/12 11:33:19;;;;;;;;;15.00;14.00;;;;;-149.00;100.00;66333.84;5099118;27;45295;-76
2021/12/12 11:35:50;;;;;;;;;15.00;15.00;;;;;-149.00;100.00;66333.84;5098261;27;45293;-76
2021/12/12 11:38:43;;;;;;;;;15.67;15.33;;;;;-149.00;100.00;66333.84;5100768;27;45345;-76
2021/12/12 11:41:20;;;;;;;;;14.00;14.00;;;;;-149.00;100.00;66333.84;5109918;27;45827;-75